Time;durP1;ratioP1;P1;durP2;ratioP2;P2;SDS_P1;SDS_P2;PMS_P1;PMS_P2;Temp;Humidity;BMP_temperature;BMP_pressure;BME280_temperature;BME280_humidity;BME280_pressure;Samples;Min_cycle;Max_cycle;Signal;HPM_P1;HPM_P2
2022/07/31 00:01:37;;;;;;;81.70;77.47;;;16.10;99.90;;;;;;5053592;28;20182;-77
2022/07/31 00:04:04;;;;;;;103.13;97.80;;;16.10;99.90;;;;;;5052828;28;20182;-77
2022/07/31 00:06:29;;;;;;;173.23;163.93;;;16.10;99.90;;;;;;5054560;28;20752;-78
2022/07/31 00:08:55;;;;;;;128.20;121.33;;;16.10;99.90;;;;;;5049213;28;20728;-78
2022/07/31 00:11:21;;;;;;;111.67;105.53;;;16.10;99.90;;;;;;5035346;28;20189;-78
2022/07/31 00:13:47;;;;;;;111.07;105.07;;;16.10;99.90;;;;;;5035425;28;20205;-77
2022/07/31 00:16:13;;;;;;;149.60;141.77;;;16.10;99.90;;;;;;5045782;28;20219;-77
2022/07/31 00:18:40;;;;;;;172.93;163.87;;;16.20;99.90;;;;;;5049156;28;20190;-77
2022/07/31 00:21:05;;;;;;;131.30;124.50;;;16.20;99.90;;;;;;5063723;28;20336;-78
2022/07/31 00:23:31;;;;;;;124.97;118.53;;;16.30;99.90;;;;;;5055096;28;20202;-78
2022/07/31 00:25:58;;;;;;;127.90;121.37;;;16.30;99.90;;;;;;5057730;28;20198;-78
2022/07/31 00:28:23;;;;;;;101.23;96.07;;;16.30;99.90;;;;;;5057465;28;20240;-78
2022/07/31 00:30:50;;;;;;;78.73;74.67;;;16.30;99.90;;;;;;5058035;28;20554;-78
2022/07/31 00:33:15;;;;;;;62.37;59.23;;;16.40;99.90;;;;;;5057402;28;20178;-78
2022/07/31 00:35:42;;;;;;;45.57;42.63;;;16.40;99.90;;;;;;5056314;28;20309;-78
2022/07/31 00:38:09;;;;;;;43.33;41.00;;;16.30;99.90;;;;;;5053644;28;20175;-79
2022/07/31 00:40:36;;;;;;;24.97;23.37;;;16.30;99.90;;;;;;5035950;28;20183;-78
2022/07/31 00:43:02;;;;;;;22.83;21.43;;;16.30;99.90;;;;;;5033997;28;20202;-78
2022/07/31 00:45:28;;;;;;;28.80;27.23;;;16.30;99.90;;;;;;5034452;28;20301;-78
2022/07/31 00:47:55;;;;;;;15.13;14.23;;;16.40;99.90;;;;;;5032776;28;20194;-78
2022/07/31 00:50:20;;;;;;;10.47;9.87;;;16.50;99.90;;;;;;5054882;28;20816;-78
2022/07/31 00:52:46;;;;;;;20.23;19.10;;;16.60;99.90;;;;;;5054433;28;20593;-78
2022/07/31 00:55:12;;;;;;;23.03;21.77;;;16.50;99.90;;;;;;5053354;28;20772;-78
2022/07/31 00:57:38;;;;;;;28.47;27.00;;;16.50;99.90;;;;;;5054082;28;20273;-78
2022/07/31 01:00:05;;;;;;;33.77;31.90;;;16.40;99.90;;;;;;5038489;28;20233;-78
2022/07/31 01:02:31;;;;;;;38.40;36.27;;;16.40;99.90;;;;;;5033839;28;20621;-78
2022/07/31 01:04:57;;;;;;;31.03;29.37;;;16.40;99.90;;;;;;5034029;28;20226;-78
2022/07/31 01:07:23;;;;;;;21.37;20.13;;;16.40;99.90;;;;;;5032743;28;20179;-78
2022/07/31 01:09:52;;;;;;;19.50;18.33;;;16.40;99.90;;;;;;5044817;28;20179;-78
2022/07/31 01:12:29;;;;;;;16.40;15.53;;;16.50;99.90;;;;;;5053023;28;20685;-78
2022/07/31 01:17:23;;;;;;;34.43;32.47;;;16.60;99.90;;;;;;5073368;22;20300;-80
2022/07/31 01:19:51;;;;;;;40.17;37.97;;;16.60;99.90;;;;;;5054626;28;20178;-80
2022/07/31 01:22:26;;;;;;;58.03;55.10;;;16.70;99.90;;;;;;5055287;28;20185;-80
2022/07/31 01:25:20;;;;;;;54.17;51.37;;;16.70;99.90;;;;;;5054192;28;20716;-80
2022/07/31 01:28:05;;;;;;;101.57;96.60;;;16.80;99.90;;;;;;5037575;28;20176;-80
2022/07/31 01:30:37;;;;;;;129.60;123.17;;;16.80;99.90;;;;;;5042094;28;20229;-79
2022/07/31 01:33:13;;;;;;;111.30;105.90;;;16.90;99.90;;;;;;5044462;28;20183;-80
2022/07/31 01:35:44;;;;;;;133.50;126.90;;;16.90;99.90;;;;;;5041101;28;20238;-79
2022/07/31 01:38:14;;;;;;;101.60;96.40;;;16.90;99.90;;;;;;5035993;28;20190;-81
2022/07/31 01:40:43;;;;;;;159.90;151.67;;;16.90;99.90;;;;;;5028307;28;20187;-80
2022/07/31 01:43:20;;;;;;;168.67;160.03;;;16.80;99.90;;;;;;5020693;28;20258;-80
2022/07/31 01:45:50;;;;;;;167.47;159.00;;;16.70;99.90;;;;;;5035230;28;20231;-80
2022/07/31 01:48:17;;;;;;;100.17;95.23;;;16.70;99.90;;;;;;5032700;28;20405;-79
2022/07/31 01:50:45;;;;;;;46.40;44.00;;;16.70;99.90;;;;;;5037934;28;20733;-80
2022/07/31 01:53:18;;;;;;;19.77;18.63;;;16.50;99.90;;;;;;5036607;28;20206;-80
2022/07/31 01:55:45;;;;;;;11.27;10.47;;;16.40;99.90;;;;;;5035960;28;20239;-80
2022/07/31 01:58:14;;;;;;;26.60;25.03;;;16.40;99.90;;;;;;5036546;28;20186;-79
2022/07/31 02:00:42;;;;;;;32.10;30.27;;;16.30;99.90;;;;;;5035910;28;20194;-79
2022/07/31 02:03:09;;;;;;;94.87;89.60;;;16.20;99.90;;;;;;5036147;28;20232;-79
2022/07/31 02:05:36;;;;;;;156.63;148.07;;;16.10;99.90;;;;;;5039081;28;20203;-80
2022/07/31 02:08:05;;;;;;;233.60;221.13;;;16.00;99.90;;;;;;5037676;28;20183;-79
2022/07/31 02:10:32;;;;;;;213.37;201.87;;;16.00;99.90;;;;;;5039157;28;20592;-80
2022/07/31 02:13:01;;;;;;;161.23;152.90;;;15.90;99.90;;;;;;5036839;28;20182;-79
2022/07/31 02:15:28;;;;;;;144.87;136.43;;;15.90;99.90;;;;;;5035524;28;20310;-79
2022/07/31 02:17:55;;;;;;;130.53;123.77;;;15.80;99.90;;;;;;5034621;28;20226;-79
2022/07/31 02:20:23;;;;;;;103.57;97.93;;;15.80;99.90;;;;;;5043264;28;20221;-79
2022/07/31 02:22:49;;;;;;;124.57;117.77;;;15.70;99.90;;;;;;5040449;28;20179;-79
2022/07/31 02:25:15;;;;;;;132.23;125.47;;;15.70;99.90;;;;;;5035636;28;20191;-80
2022/07/31 02:27:42;;;;;;;117.60;111.63;;;15.60;99.90;;;;;;5035253;28;20414;-79
2022/07/31 02:30:09;;;;;;;114.67;108.67;;;15.60;99.90;;;;;;5045566;28;20187;-79
2022/07/31 02:32:37;;;;;;;110.67;104.87;;;15.60;99.90;;;;;;5047046;28;20190;-79
2022/07/31 02:35:06;;;;;;;93.27;88.33;;;15.60;99.90;;;;;;5041744;28;20199;-79
2022/07/31 02:37:36;;;;;;;91.83;86.47;;;15.50;99.90;;;;;;5042696;28;20175;-78
2022/07/31 02:40:04;;;;;;;72.80;69.00;;;15.50;99.90;;;;;;5035734;28;20179;-80
2022/07/31 02:42:30;;;;;;;64.60;60.90;;;15.40;99.90;;;;;;5045939;28;20179;-78
2022/07/31 02:44:59;;;;;;;58.23;55.13;;;15.40;99.90;;;;;;5033735;28;20179;-79
2022/07/31 02:47:25;;;;;;;54.30;51.50;;;15.30;99.90;;;;;;5030642;28;20179;-79
2022/07/31 02:49:51;;;;;;;63.73;60.17;;;15.20;99.90;;;;;;5031941;28;20194;-79
2022/07/31 02:52:18;;;;;;;58.97;55.73;;;15.10;99.90;;;;;;5049256;28;20178;-79
2022/07/31 02:54:44;;;;;;;52.03;49.27;;;15.10;99.90;;;;;;5050573;28;20678;-80
2022/07/31 02:57:10;;;;;;;56.07;53.10;;;15.00;99.90;;;;;;5035377;28;20284;-79
2022/07/31 02:59:37;;;;;;;44.93;42.23;;;14.90;99.90;;;;;;5032349;28;20182;-80
2022/07/31 03:02:04;;;;;;;49.43;46.73;;;14.90;99.90;;;;;;5033826;28;20233;-79
2022/07/31 03:04:29;;;;;;;33.57;31.60;;;14.90;99.90;;;;;;5035515;28;20179;-79
2022/07/31 03:06:55;;;;;;;30.37;28.67;;;14.80;99.90;;;;;;5033118;28;20201;-79
2022/07/31 03:09:21;;;;;;;30.70;29.07;;;14.80;99.90;;;;;;5033619;28;20187;-79
2022/07/31 03:11:47;;;;;;;24.50;23.13;;;14.70;99.90;;;;;;5038947;28;20183;-78
2022/07/31 03:14:13;;;;;;;27.43;25.57;;;14.70;99.90;;;;;;5041145;28;20190;-79
2022/07/31 03:16:42;;;;;;;25.00;23.60;;;14.60;99.90;;;;;;5047289;28;20235;-79
2022/07/31 03:19:08;;;;;;;23.47;22.17;;;14.60;99.90;;;;;;5042624;28;20190;-79
2022/07/31 03:21:34;;;;;;;28.57;26.53;;;14.60;99.90;;;;;;5036610;28;20214;-79
2022/07/31 03:24:02;;;;;;;18.23;17.17;;;14.60;99.90;;;;;;5042813;28;20190;-79
2022/07/31 03:26:28;;;;;;;22.33;20.97;;;14.60;99.90;;;;;;5040693;28;20226;-79
2022/07/31 03:28:54;;;;;;;21.73;20.47;;;14.50;99.90;;;;;;5039362;28;20190;-79
2022/07/31 03:31:20;;;;;;;25.43;24.03;;;14.60;99.90;;;;;;5034542;28;20564;-79
2022/07/31 03:33:46;;;;;;;23.93;22.57;;;14.50;99.90;;;;;;5034618;28;20607;-79
2022/07/31 03:36:12;;;;;;;26.40;24.93;;;14.60;99.90;;;;;;5033445;28;20250;-78
2022/07/31 03:38:38;;;;;;;30.63;28.83;;;14.50;99.90;;;;;;5033046;28;20179;-79
2022/07/31 03:41:04;;;;;;;32.27;30.37;;;14.40;99.90;;;;;;5039438;28;20186;-78
2022/07/31 03:43:32;;;;;;;36.63;34.60;;;14.40;99.90;;;;;;5042595;28;20190;-80
2022/07/31 03:45:59;;;;;;;32.67;30.93;;;14.40;99.90;;;;;;5035112;28;20203;-79
2022/07/31 03:48:26;;;;;;;33.77;31.97;;;14.50;99.90;;;;;;5034188;28;20187;-78
2022/07/31 03:50:53;;;;;;;28.23;26.67;;;14.50;99.90;;;;;;5034078;28;20182;-79
2022/07/31 03:53:21;;;;;;;29.97;28.37;;;14.50;99.90;;;;;;5035043;28;20183;-78
2022/07/31 03:55:48;;;;;;;29.33;27.70;;;14.50;99.90;;;;;;5034005;28;20214;-78
2022/07/31 03:58:19;;;;;;;25.13;23.63;;;14.50;99.90;;;;;;5032330;28;20184;-79
2022/07/31 04:00:45;;;;;;;29.60;27.90;;;14.60;99.90;;;;;;5032131;28;20534;-78
2022/07/31 04:03:12;;;;;;;26.07;24.47;;;14.60;99.90;;;;;;5034213;28;20190;-78
2022/07/31 04:05:39;;;;;;;25.43;24.00;;;14.60;99.90;;;;;;5032912;28;20257;-78
2022/07/31 04:08:08;;;;;;;34.87;32.93;;;14.60;99.90;;;;;;5033243;28;20183;-79
2022/07/31 04:10:35;;;;;;;45.27;42.93;;;14.50;99.90;;;;;;5034041;28;20211;-78
2022/07/31 04:13:02;;;;;;;58.83;55.70;;;14.60;99.90;;;;;;5032842;28;20179;-78
2022/07/31 04:15:29;;;;;;;53.20;50.40;;;14.50;99.90;;;;;;5048046;28;20215;-78
2022/07/31 04:17:55;;;;;;;51.77;48.97;;;14.50;99.90;;;;;;5034812;28;20227;-79
2022/07/31 04:20:21;;;;;;;59.63;56.60;;;14.50;99.90;;;;;;5042382;28;20179;-78
2022/07/31 04:22:48;;;;;;;67.07;63.47;;;14.50;99.90;;;;;;5052010;28;20242;-78
2022/07/31 04:25:15;;;;;;;92.73;87.60;;;14.60;99.90;;;;;;5044924;28;20190;-78
2022/07/31 04:27:42;;;;;;;108.67;103.03;;;14.60;99.90;;;;;;5038379;28;20190;-78
2022/07/31 04:30:08;;;;;;;112.93;106.93;;;14.60;99.90;;;;;;5039517;28;20647;-78
2022/07/31 04:32:37;;;;;;;107.67;102.07;;;14.60;99.90;;;;;;5038578;28;20189;-78
2022/07/31 04:35:04;;;;;;;127.23;120.37;;;14.70;99.90;;;;;;5038060;28;20226;-79
2022/07/31 04:37:31;;;;;;;122.80;116.27;;;14.70;99.90;;;;;;5038696;28;20265;-78
2022/07/31 04:39:57;;;;;;;169.17;159.80;;;14.70;99.90;;;;;;5039379;28;20182;-78
2022/07/31 04:42:22;;;;;;;165.23;156.80;;;14.70;99.90;;;;;;5045137;28;20178;-79
2022/07/31 04:44:49;;;;;;;165.93;157.10;;;14.80;99.90;;;;;;5048495;28;20179;-79
2022/07/31 04:47:15;;;;;;;156.97;148.57;;;14.90;99.90;;;;;;5037320;28;20202;-79
2022/07/31 04:49:41;;;;;;;148.00;140.30;;;15.00;99.90;;;;;;5037820;28;20183;-79
2022/07/31 04:52:07;;;;;;;77.20;72.93;;;15.10;99.90;;;;;;5037060;28;20179;-79
2022/07/31 04:54:33;;;;;;;20.83;19.70;;;15.10;99.90;;;;;;5036690;28;20179;-78
2022/07/31 04:56:59;;;;;;;12.20;11.47;;;15.20;99.90;;;;;;5037452;28;20206;-78
2022/07/31 04:59:25;;;;;;;14.00;12.97;;;15.30;99.90;;;;;;5036975;28;20592;-79
2022/07/31 05:01:51;;;;;;;14.03;13.23;;;15.40;99.90;;;;;;5041607;28;20541;-79
2022/07/31 05:04:18;;;;;;;12.40;11.70;;;15.40;99.90;;;;;;5045471;28;20269;-78
2022/07/31 05:06:48;;;;;;;14.93;14.03;;;15.60;99.90;;;;;;5040174;28;20202;-79
2022/07/31 05:09:23;;;;;;;38.43;36.23;;;15.80;99.90;;;;;;5061434;28;20193;-79
2022/07/31 05:11:50;;;;;;;16.23;15.23;;;16.00;99.90;;;;;;5059755;28;20188;-79
2022/07/31 05:14:19;;;;;;;52.20;49.23;;;16.20;99.90;;;;;;5059816;28;20321;-79
2022/07/31 05:16:46;;;;;;;28.83;27.03;;;16.50;99.90;;;;;;5070566;28;20314;-79
2022/07/31 05:19:13;;;;;;;30.40;28.80;;;16.90;99.90;;;;;;5039453;28;20179;-78
2022/07/31 05:21:39;;;;;;;51.30;48.40;;;17.50;99.90;;;;;;5044652;28;20175;-79
2022/07/31 05:24:05;;;;;;;19.93;18.83;;;18.10;99.90;;;;;;5059219;28;20612;-80
2022/07/31 05:26:31;;;;;;;7.78;7.07;;;18.70;99.90;;;;;;5038429;28;20238;-79
2022/07/31 05:28:58;;;;;;;38.08;36.15;;;19.30;99.90;;;;;;5039346;28;20187;-79
2022/07/31 05:31:25;;;;;;;28.75;27.38;;;19.80;99.90;;;;;;5036502;28;20183;-78
2022/07/31 05:33:51;;;;;;;10.15;9.43;;;20.20;99.90;;;;;;5037069;28;20218;-79
2022/07/31 05:36:18;;;;;;;13.45;12.68;;;20.90;99.90;;;;;;5046022;28;20241;-79
2022/07/31 05:38:45;;;;;;;11.70;10.90;;;21.40;99.90;;;;;;5045324;28;20199;-82
2022/07/31 05:41:12;;;;;;;8.57;8.07;;;21.90;99.90;;;;;;5031280;28;20209;-71
2022/07/31 05:43:38;;;;;;;15.00;14.13;;;22.30;99.90;;;;;;5015773;28;20278;-71
2022/07/31 05:46:05;;;;;;;35.92;33.95;;;22.50;99.90;;;;;;5024096;28;20210;-71
2022/07/31 05:48:31;;;;;;;48.80;46.28;;;22.50;99.90;;;;;;5031214;28;20190;-71
2022/07/31 05:50:57;;;;;;;35.25;33.42;;;22.20;99.90;;;;;;5030301;28;20194;-71
2022/07/31 05:53:23;;;;;;;24.70;23.40;;;21.80;99.90;;;;;;5032243;28;20187;-71
2022/07/31 05:55:50;;;;;;;12.60;11.70;;;21.50;99.90;;;;;;5030708;28;20219;-71
2022/07/31 05:58:17;;;;;;;14.35;13.65;;;21.20;99.90;;;;;;5030103;28;20228;-71
2022/07/31 06:00:45;;;;;;;8.43;7.80;;;20.70;99.90;;;;;;5032012;28;20186;-70
2022/07/31 06:03:11;;;;;;;8.43;7.93;;;20.30;99.90;;;;;;5045916;28;20186;-71
2022/07/31 06:05:38;;;;;;;13.02;12.32;;;20.10;99.90;;;;;;5031603;28;20218;-71
2022/07/31 06:08:05;;;;;;;10.65;9.93;;;19.90;99.90;;;;;;5029390;28;20240;-71
2022/07/31 06:10:31;;;;;;;11.02;10.43;;;19.80;99.90;;;;;;5031552;28;20187;-71
2022/07/31 06:12:57;;;;;;;11.90;11.10;;;19.80;99.90;;;;;;5030840;28;20236;-71
2022/07/31 06:15:23;;;;;;;9.10;8.50;;;19.90;99.90;;;;;;5028847;28;20301;-71
2022/07/31 06:17:49;;;;;;;9.05;8.18;;;19.90;99.90;;;;;;5030513;28;20256;-72
2022/07/31 06:20:15;;;;;;;9.43;8.85;;;20.00;99.90;;;;;;5030724;28;20183;-71
2022/07/31 06:22:42;;;;;;;10.43;9.63;;;20.20;99.90;;;;;;5031190;28;20179;-71
2022/07/31 06:25:09;;;;;;;12.48;11.63;;;20.50;99.90;;;;;;5031636;28;20186;-72
2022/07/31 06:27:35;;;;;;;13.30;12.38;;;20.70;99.90;;;;;;5029538;28;20248;-71
2022/07/31 06:30:05;;;;;;;11.80;11.10;;;20.90;99.90;;;;;;5031318;28;20213;-71
2022/07/31 06:32:31;;;;;;;10.65;9.73;;;21.10;99.90;;;;;;5031289;28;20187;-71
2022/07/31 06:34:58;;;;;;;6.75;6.30;;;21.20;99.90;;;;;;5029020;28;20218;-71
2022/07/31 06:37:24;;;;;;;6.43;5.55;;;21.50;99.90;;;;;;5030266;28;20179;-72
2022/07/31 06:39:51;;;;;;;7.85;7.22;;;21.60;99.90;;;;;;5046895;28;20190;-72
2022/07/31 06:42:20;;;;;;;7.05;6.57;;;21.80;99.90;;;;;;5029293;28;20178;-71
2022/07/31 06:44:46;;;;;;;7.28;6.70;;;21.80;99.90;;;;;;5030964;28;20185;-72
2022/07/31 06:47:12;;;;;;;7.85;7.32;;;21.70;99.90;;;;;;5030481;28;20203;-72
2022/07/31 06:49:39;;;;;;;6.13;5.82;;;21.70;99.90;;;;;;5030404;28;20180;-72
2022/07/31 06:52:05;;;;;;;6.80;6.43;;;21.90;99.90;;;;;;5031249;28;20178;-71
2022/07/31 06:54:31;;;;;;;7.82;7.25;;;22.00;99.90;;;;;;5029633;28;20640;-72
2022/07/31 06:56:57;;;;;;;7.10;6.60;;;22.00;99.90;;;;;;5029338;28;20297;-72
2022/07/31 06:59:23;;;;;;;6.13;5.72;;;22.10;99.90;;;;;;5030914;28;20656;-72
2022/07/31 07:01:49;;;;;;;8.82;8.23;;;22.20;99.90;;;;;;5030670;28;20675;-72
2022/07/31 07:04:15;;;;;;;10.52;9.93;;;22.50;99.90;;;;;;5030262;28;20183;-72
2022/07/31 07:06:40;;;;;;;12.73;11.75;;;22.60;99.90;;;;;;5030683;28;20203;-72
2022/07/31 07:09:07;;;;;;;11.02;10.23;;;22.60;99.90;;;;;;5029353;28;20650;-72
2022/07/31 07:11:33;;;;;;;11.55;10.90;;;22.80;99.90;;;;;;5028846;28;20193;-71
2022/07/31 07:13:59;;;;;;;21.88;20.73;;;22.90;99.90;;;;;;5030351;28;20183;-72
2022/07/31 07:16:26;;;;;;;22.10;20.65;;;23.10;99.90;;;;;;5045336;22;20327;-74
2022/07/31 07:18:53;;;;;;;25.83;24.52;;;23.30;99.90;;;;;;4992201;28;20538;-72
2022/07/31 07:21:18;;;;;;;32.38;30.67;;;23.60;99.90;;;;;;5010828;28;20184;-74
2022/07/31 07:23:45;;;;;;;19.15;18.00;;;23.70;99.90;;;;;;5008618;28;20652;-76
2022/07/31 07:26:11;;;;;;;12.05;11.45;;;23.80;99.90;;;;;;5036745;28;20221;-76
2022/07/31 07:28:38;;;;;;;10.63;9.88;;;23.90;99.90;;;;;;5049347;28;20213;-74
2022/07/31 07:31:04;;;;;;;7.47;6.97;;;23.90;99.90;;;;;;5032887;28;20182;-75
2022/07/31 07:33:31;;;;;;;6.25;5.65;;;24.00;99.90;;;;;;5049852;28;20190;-76
2022/07/31 07:35:56;;;;;;;7.50;7.03;;;24.50;99.90;;;;;;5051109;28;20214;-75
2022/07/31 07:38:23;;;;;;;22.73;21.42;;;25.10;99.90;;;;;;5034486;28;20182;-75
2022/07/31 07:40:49;;;;;;;13.05;12.35;;;26.30;99.90;;;;;;5050756;28;20182;-75
2022/07/31 07:43:17;;;;;;;8.48;7.88;;;27.10;99.10;;;;;;5032917;28;20175;-76
2022/07/31 07:45:43;;;;;;;5.93;5.53;;;27.20;99.30;;;;;;5031809;28;20206;-75
2022/07/31 07:48:09;;;;;;;6.32;5.80;;;26.80;97.20;;;;;;5049877;28;20178;-75
2022/07/31 07:50:35;;;;;;;5.72;5.28;;;26.50;96.80;;;;;;5047158;28;20576;-76
2022/07/31 07:53:01;;;;;;;5.18;4.75;;;26.30;97.10;;;;;;5033185;28;20183;-77
2022/07/31 07:55:27;;;;;;;4.90;4.60;;;26.30;97.20;;;;;;5034700;28;20210;-75
2022/07/31 07:57:53;;;;;;;5.55;5.15;;;26.40;97.20;;;;;;5033874;28;20191;-75
2022/07/31 08:00:19;;;;;;;5.63;5.20;;;26.50;96.40;;;;;;5035388;28;20209;-74
2022/07/31 08:02:45;;;;;;;5.38;5.07;;;26.40;96.80;;;;;;5047398;28;20269;-74
2022/07/31 08:05:11;;;;;;;6.28;5.80;;;26.30;96.50;;;;;;5054946;28;20188;-76
2022/07/31 08:07:38;;;;;;;5.38;5.18;;;26.40;95.90;;;;;;5036739;28;20198;-76
2022/07/31 08:10:06;;;;;;;9.30;8.55;;;26.20;95.40;;;;;;5017620;28;20190;-73
2022/07/31 08:12:33;;;;;;;6.00;5.60;;;26.10;95.80;;;;;;5016235;28;20183;-73
2022/07/31 08:14:59;;;;;;;6.00;5.68;;;26.20;95.40;;;;;;5033737;28;20179;-72
2022/07/31 08:17:25;;;;;;;10.60;9.90;;;26.30;94.80;;;;;;5049545;28;20710;-78
2022/07/31 08:19:51;;;;;;;9.30;8.25;;;26.10;95.30;;;;;;5054684;28;20174;-73
2022/07/31 08:22:17;;;;;;;7.15;6.40;;;26.20;95.50;;;;;;5053806;28;20174;-70
2022/07/31 08:24:43;;;;;;;5.70;5.40;;;26.30;96.60;;;;;;5022093;28;20525;-72
2022/07/31 08:27:24;;;;;;;5.85;5.22;;;26.10;96.20;;;;;;5011833;28;20207;-72
2022/07/31 08:29:55;;;;;;;7.15;6.70;;;26.10;96.70;;;;;;5035060;28;20193;-72
2022/07/31 08:32:25;;;;;;;6.25;5.80;;;26.20;95.80;;;;;;5052764;28;20216;-72
2022/07/31 08:34:52;;;;;;;7.68;7.28;;;26.00;95.80;;;;;;5053266;28;20288;-72
2022/07/31 08:37:18;;;;;;;5.90;5.50;;;25.90;95.60;;;;;;5053137;28;20281;-72
2022/07/31 08:39:45;;;;;;;6.55;6.05;;;26.00;96.80;;;;;;5054894;28;20217;-77
2022/07/31 08:42:12;;;;;;;5.30;4.90;;;26.30;95.40;;;;;;5038646;28;20209;-78
2022/07/31 08:44:43;;;;;;;6.03;5.53;;;26.60;94.50;;;;;;5054133;28;20615;-76
2022/07/31 08:47:16;;;;;;;7.15;6.28;;;27.10;93.70;;;;;;5056936;28;20198;-76
2022/07/31 08:49:47;;;;;;;12.88;12.15;;;27.50;92.70;;;;;;5054157;28;20189;-77
2022/07/31 08:52:23;;;;;;;19.90;18.58;;;27.80;92.00;;;;;;5036566;28;20197;-76
2022/07/31 08:54:51;;;;;;;14.75;13.98;;;28.30;92.00;;;;;;5055346;28;20265;-77
2022/07/31 08:57:18;;;;;;;6.72;6.32;;;28.70;89.80;;;;;;5035839;28;20257;-76
2022/07/31 08:59:45;;;;;;;5.45;5.03;;;28.90;87.30;;;;;;5039429;28;20254;-77
2022/07/31 09:02:11;;;;;;;5.07;4.80;;;28.80;85.10;;;;;;5035057;28;20179;-78
2022/07/31 09:04:38;;;;;;;5.10;4.82;;;28.80;84.10;;;;;;5034407;28;20214;-78
2022/07/31 09:07:08;;;;;;;5.03;4.50;;;29.00;83.40;;;;;;5034225;28;20210;-77
2022/07/31 09:09:34;;;;;;;4.68;4.32;;;29.20;80.10;;;;;;5034907;28;20220;-77
2022/07/31 09:12:00;;;;;;;4.88;4.53;;;29.50;79.40;;;;;;5034574;28;20648;-78
2022/07/31 09:14:33;;;;;;;6.53;6.20;;;30.30;79.00;;;;;;5054554;28;20186;-77
2022/07/31 09:17:00;;;;;;;6.68;6.30;;;30.90;73.80;;;;;;5054135;28;20225;-77
2022/07/31 09:19:40;;;;;;;8.23;7.72;;;30.20;74.60;;;;;;5036597;28;20174;-78
2022/07/31 09:22:06;;;;;;;9.25;8.63;;;30.10;74.70;;;;;;5054696;28;20212;-78
2022/07/31 09:24:34;;;;;;;10.18;9.57;;;30.40;74.60;;;;;;5037358;28;20174;-77
2022/07/31 09:27:06;;;;;;;16.38;15.48;;;30.90;72.50;;;;;;5047350;28;20961;-79
2022/07/31 09:29:37;;;;;;;18.40;17.42;;;31.80;67.90;;;;;;5037751;28;20179;-76
2022/07/31 09:32:16;;;;;;;18.67;17.55;;;32.30;68.10;;;;;;5038032;28;20241;-77
2022/07/31 09:34:43;;;;;;;102.53;97.63;;;32.80;65.70;;;;;;5034087;28;20190;-76
2022/07/31 09:37:11;;;;;;;98.80;93.80;;;32.90;60.20;;;;;;5032570;28;20294;-78
2022/07/31 09:39:38;;;;;;;217.90;207.32;;;33.10;63.90;;;;;;5034758;28;20185;-77
2022/07/31 09:42:05;;;;;;;264.30;251.35;;;33.00;60.60;;;;;;5034154;28;20183;-77
2022/07/31 09:44:43;;;;;;;321.77;305.33;;;32.70;59.60;;;;;;5049851;28;20186;-77
2022/07/31 09:47:27;;;;;;;223.07;212.30;;;32.10;58.60;;;;;;5053308;28;20198;-78
2022/07/31 09:49:57;;;;;;;101.18;96.22;;;31.80;60.90;;;;;;5053470;28;20190;-77
2022/07/31 09:52:24;;;;;;;196.48;187.00;;;31.70;62.20;;;;;;5053812;28;20185;-76
2022/07/31 09:55:06;;;;;;;211.95;201.38;;;31.50;59.40;;;;;;5040107;28;20236;-77
2022/07/31 09:57:34;;;;;;;187.80;178.45;;;31.50;59.70;;;;;;5047869;28;20222;-77
2022/07/31 10:00:01;;;;;;;215.50;205.00;;;31.70;58.10;;;;;;5033674;28;20262;-77
2022/07/31 10:02:29;;;;;;;297.98;282.90;;;31.90;56.70;;;;;;5033442;28;20271;-77
2022/07/31 10:04:56;;;;;;;316.83;300.67;;;32.30;55.40;;;;;;5033624;28;20186;-78
2022/07/31 10:07:28;;;;;;;376.10;356.17;;;32.50;55.10;;;;;;5014938;28;20203;-78
2022/07/31 10:09:56;;;;;;;398.48;376.98;;;33.00;55.50;;;;;;5035106;28;20190;-77
2022/07/31 10:12:27;;;;;;;441.73;417.33;;;33.50;55.70;;;;;;5032119;28;20170;-76
2022/07/31 10:14:58;;;;;;;457.52;432.30;;;33.60;54.00;;;;;;5035554;28;20171;-78
2022/07/31 10:17:28;;;;;;;384.23;363.83;;;33.30;54.10;;;;;;5054328;28;20273;-75
2022/07/31 10:20:01;;;;;;;365.73;345.30;;;33.50;52.80;;;;;;5040031;28;20202;-76
2022/07/31 10:22:43;;;;;;;368.92;349.63;;;32.90;52.50;;;;;;5055375;28;20290;-77
2022/07/31 10:25:12;;;;;;;327.83;311.05;;;33.00;51.80;;;;;;5051720;28;20210;-77
2022/07/31 10:27:39;;;;;;;319.73;303.65;;;32.90;51.70;;;;;;5032272;28;20206;-77
2022/07/31 10:30:07;;;;;;;395.52;374.33;;;32.40;51.70;;;;;;5035419;28;20181;-78
2022/07/31 10:32:33;;;;;;;414.67;392.23;;;32.50;53.90;;;;;;5054279;28;20179;-78
2022/07/31 10:35:01;;;;;;;372.67;352.95;;;32.50;54.70;;;;;;5056026;28;20292;-77
2022/07/31 10:37:39;;;;;;;371.33;351.05;;;32.70;50.90;;;;;;5054412;28;20284;-77
2022/07/31 10:40:11;;;;;;;405.90;384.27;;;32.50;52.60;;;;;;5045695;28;20299;-75
2022/07/31 10:42:43;;;;;;;434.67;410.65;;;32.90;53.10;;;;;;5033044;28;20179;-77
2022/07/31 10:45:12;;;;;;;411.25;388.85;;;33.20;52.90;;;;;;5032242;28;20229;-75
2022/07/31 10:47:38;;;;;;;313.92;297.77;;;33.50;51.60;;;;;;5014179;28;20222;-77
2022/07/31 10:50:05;;;;;;;368.90;349.15;;;33.70;50.20;;;;;;5033396;28;20178;-78
2022/07/31 10:52:36;;;;;;;263.17;250.23;;;34.30;52.30;;;;;;5033511;28;20229;-76
2022/07/31 10:55:25;;;;;;;187.85;178.93;;;33.90;49.10;;;;;;5029800;28;20183;-79
2022/07/31 10:57:51;;;;;;;138.05;131.40;;;34.00;48.60;;;;;;5052766;28;20178;-78
2022/07/31 11:00:19;;;;;;;122.57;116.68;;;34.90;47.80;;;;;;5036291;28;20224;-76
2022/07/31 11:02:46;;;;;;;148.18;141.10;;;35.20;48.70;;;;;;5056395;28;20193;-76
2022/07/31 11:05:13;;;;;;;121.82;115.75;;;34.90;49.00;;;;;;5057487;28;20174;-76
2022/07/31 11:07:44;;;;;;;129.60;123.38;;;34.20;49.50;;;;;;5056616;28;20222;-78
2022/07/31 11:10:11;;;;;;;155.98;148.18;;;34.90;49.10;;;;;;5038040;28;20558;-79
2022/07/31 11:12:38;;;;;;;163.63;155.85;;;36.00;47.10;;;;;;5034163;28;20185;-78
2022/07/31 11:15:19;;;;;;;154.02;146.68;;;35.00;48.50;;;;;;5033772;28;20217;-78
2022/07/31 11:17:45;;;;;;;137.85;131.32;;;34.80;49.20;;;;;;5032128;28;20591;-77
2022/07/31 11:20:26;;;;;;;149.27;141.93;;;35.20;47.80;;;;;;5034324;28;20182;-83
2022/07/31 11:23:03;;;;;;;156.25;148.90;;;35.10;48.90;;;;;;5014561;28;20639;-83
2022/07/31 11:25:33;;;;;;;142.10;135.23;;;34.60;49.60;;;;;;5028139;28;20183;-83
2022/07/31 11:28:26;;;;;;;131.55;125.15;;;34.50;49.90;;;;;;4998255;28;20603;-83
2022/07/31 11:30:57;;;;;;;152.25;144.98;;;34.90;50.60;;;;;;5015690;28;20234;-82
2022/07/31 11:33:43;;;;;;;143.05;136.27;;;35.10;49.60;;;;;;5014877;28;20211;-82
2022/07/31 11:36:20;;;;;;;195.57;186.15;;;33.90;50.30;;;;;;5019171;28;20587;-82
2022/07/31 11:38:51;;;;;;;208.57;198.25;;;33.20;51.60;;;;;;5060201;28;20177;-82
2022/07/31 11:41:20;;;;;;;301.90;286.85;;;32.90;51.70;;;;;;5062566;28;20170;-82
2022/07/31 11:43:48;;;;;;;373.55;353.92;;;32.40;53.60;;;;;;5066686;28;20175;-83
2022/07/31 11:46:29;;;;;;;318.45;302.30;;;32.90;53.30;;;;;;5058736;28;20664;-82
2022/07/31 11:48:56;;;;;;;263.48;250.52;;;33.80;52.10;;;;;;5057048;28;20182;-82
2022/07/31 11:51:23;;;;;;;182.65;173.80;;;34.20;50.30;;;;;;5053053;28;20650;-83
2022/07/31 11:53:50;;;;;;;163.05;155.18;;;35.00;49.60;;;;;;5059776;28;20281;-80
2022/07/31 11:56:20;;;;;;;145.80;138.73;;;36.20;46.50;;;;;;5058362;28;20237;-82
2022/07/31 11:58:56;;;;;;;148.25;141.05;;;36.20;46.40;;;;;;5054743;28;20194;-86
2022/07/31 12:01:28;;;;;;;158.85;151.13;;;35.60;48.30;;;;;;5039757;28;20196;-84
2022/07/31 12:03:57;;;;;;;148.68;141.45;;;35.50;47.60;;;;;;5058699;28;20182;-87
2022/07/31 12:06:23;;;;;;;177.32;168.77;;;34.60;50.30;;;;;;5058252;28;20198;-83
2022/07/31 12:08:49;;;;;;;145.95;138.93;;;34.50;49.20;;;;;;5056659;28;20187;-86
2022/07/31 12:11:20;;;;;;;129.18;122.88;;;35.40;47.00;;;;;;5040095;28;20186;-82
2022/07/31 12:13:47;;;;;;;128.70;122.55;;;36.50;48.50;;;;;;5035601;28;20225;-82
2022/07/31 12:16:14;;;;;;;82.57;78.50;;;36.80;47.10;;;;;;5014851;28;20214;-83
2022/07/31 12:18:47;;;;;;;22.70;21.65;;;36.80;46.90;;;;;;5056833;28;20259;-83
2022/07/31 12:21:14;;;;;;;9.43;8.85;;;38.10;45.20;;;;;;5041829;28;20690;-82
2022/07/31 12:23:42;;;;;;;6.97;6.38;;;38.30;42.50;;;;;;5041479;28;20270;-84
2022/07/31 12:26:20;;;;;;;10.23;9.52;;;37.90;44.00;;;;;;5060599;28;20191;-82
2022/07/31 12:28:55;;;;;;;21.77;20.58;;;35.80;46.30;;;;;;5074861;28;20171;-82
2022/07/31 12:31:21;;;;;;;85.32;81.30;;;34.40;48.70;;;;;;5056405;28;20254;-82
2022/07/31 12:33:47;;;;;;;163.35;155.52;;;34.20;48.50;;;;;;5030828;28;20191;-82